sensor_id;sensor_type;location;lat;lon;timestamp;pressure;altitude;pressure_sealevel;temperature;humidity
61035;BME280;46916;40.564;-7.958;2023-03-03T00:01:16;97800.69;;;7.70;43.91
61035;BME280;46916;40.564;-7.958;2023-03-03T00:03:22;97803.84;;;7.76;43.81
61035;BME280;46916;40.564;-7.958;2023-03-03T00:05:23;97809.16;;;7.74;44.21
61035;BME280;46916;40.564;-7.958;2023-03-03T00:07:24;97804.13;;;7.71;44.29
61035;BME280;46916;40.564;-7.958;2023-03-03T00:09:25;97812.06;;;7.69;44.72
61035;BME280;46916;40.564;-7.958;2023-03-03T00:11:26;97818.53;;;7.64;44.73
61035;BME280;46916;40.564;-7.958;2023-03-03T00:13:29;97802.47;;;7.57;44.66
61035;BME280;46916;40.564;-7.958;2023-03-03T00:15:30;97805.25;;;7.54;44.99
61035;BME280;46916;40.564;-7.958;2023-03-03T00:17:31;97806.63;;;7.47;44.90
61035;BME280;46916;40.564;-7.958;2023-03-03T00:19:37;97807.00;;;7.41;45.01
61035;BME280;46916;40.564;-7.958;2023-03-03T00:21:44;97808.03;;;7.38;44.97
61035;BME280;46916;40.564;-7.958;2023-03-03T00:23:45;97815.13;;;7.36;45.21
61035;BME280;46916;40.564;-7.958;2023-03-03T00:25:49;97807.22;;;7.38;45.00
61035;BME280;46916;40.564;-7.958;2023-03-03T00:27:50;97800.34;;;7.37;45.27
61035;BME280;46916;40.564;-7.958;2023-03-03T00:29:55;97794.94;;;7.40;45.42
61035;BME280;46916;40.564;-7.958;2023-03-03T00:36:30;97796.72;;;7.52;45.01
61035;BME280;46916;40.564;-7.958;2023-03-03T00:38:35;97795.78;;;7.53;44.76
61035;BME280;46916;40.564;-7.958;2023-03-03T00:40:37;97793.19;;;7.53;44.98
61035;BME280;46916;40.564;-7.958;2023-03-03T00:42:39;97794.81;;;7.41;44.92
61035;BME280;46916;40.564;-7.958;2023-03-03T00:44:47;97795.25;;;7.35;45.23
61035;BME280;46916;40.564;-7.958;2023-03-03T00:46:48;97792.50;;;7.24;45.57
61035;BME280;46916;40.564;-7.958;2023-03-03T00:48:50;97796.91;;;7.09;45.78
61035;BME280;46916;40.564;-7.958;2023-03-03T00:50:54;97795.56;;;7.04;45.84
61035;BME280;46916;40.564;-7.958;2023-03-03T00:53:05;97791.13;;;6.91;45.86
61035;BME280;46916;40.564;-7.958;2023-03-03T00:55:07;97789.41;;;6.78;46.54
61035;BME280;46916;40.564;-7.958;2023-03-03T00:57:08;97793.63;;;6.66;46.69
61035;BME280;46916;40.564;-7.958;2023-03-03T00:59:10;97789.19;;;6.54;47.28
61035;BME280;46916;40.564;-7.958;2023-03-03T01:01:11;97784.75;;;6.41;47.47
61035;BME280;46916;40.564;-7.958;2023-03-03T01:03:20;97778.25;;;6.34;47.61
61035;BME280;46916;40.564;-7.958;2023-03-03T01:05:21;97787.47;;;6.26;47.77
61035;BME280;46916;40.564;-7.958;2023-03-03T01:07:23;97785.31;;;6.18;47.77
61035;BME280;46916;40.564;-7.958;2023-03-03T01:09:24;97783.38;;;6.07;47.78
61035;BME280;46916;40.564;-7.958;2023-03-03T01:11:26;97779.50;;;6.00;49.27
61035;BME280;46916;40.564;-7.958;2023-03-03T01:13:32;97777.34;;;5.92;48.52
61035;BME280;46916;40.564;-7.958;2023-03-03T01:15:33;97775.34;;;5.82;49.42
61035;BME280;46916;40.564;-7.958;2023-03-03T01:17:35;97779.88;;;5.78;49.13
61035;BME280;46916;40.564;-7.958;2023-03-03T01:19:35;97777.28;;;5.78;49.42
61035;BME280;46916;40.564;-7.958;2023-03-03T01:21:36;97778.06;;;5.80;49.34
61035;BME280;46916;40.564;-7.958;2023-03-03T01:23:38;97782.22;;;5.83;49.79
61035;BME280;46916;40.564;-7.958;2023-03-03T01:25:39;97773.84;;;5.78;49.20
61035;BME280;46916;40.564;-7.958;2023-03-03T01:27:39;97770.78;;;5.71;49.20
61035;BME280;46916;40.564;-7.958;2023-03-03T01:29:40;97764.38;;;5.62;49.20
61035;BME280;46916;40.564;-7.958;2023-03-03T01:31:41;97765.41;;;5.60;49.89
61035;BME280;46916;40.564;-7.958;2023-03-03T01:33:41;97769.94;;;5.56;49.97
61035;BME280;46916;40.564;-7.958;2023-03-03T01:35:46;97769.56;;;5.48;49.60
61035;BME280;46916;40.564;-7.958;2023-03-03T01:37:47;97765.63;;;5.41;50.43
61035;BME280;46916;40.564;-7.958;2023-03-03T01:39:52;97766.53;;;5.26;50.73
61035;BME280;46916;40.564;-7.958;2023-03-03T01:41:53;97755.56;;;5.20;50.79
61035;BME280;46916;40.564;-7.958;2023-03-03T01:43:54;97760.94;;;5.17;50.47
61035;BME280;46916;40.564;-7.958;2023-03-03T01:48:09;97746.56;;;5.12;50.93
61035;BME280;46916;40.564;-7.958;2023-03-03T01:50:20;97750.16;;;5.09;51.38
61035;BME280;46916;40.564;-7.958;2023-03-03T01:52:35;97753.84;;;5.05;51.31
61035;BME280;46916;40.564;-7.958;2023-03-03T01:54:47;97742.16;;;4.98;51.50
61035;BME280;46916;40.564;-7.958;2023-03-03T01:56:51;97745.66;;;4.97;51.14
61035;BME280;46916;40.564;-7.958;2023-03-03T01:58:59;97748.19;;;4.99;51.12
61035;BME280;46916;40.564;-7.958;2023-03-03T02:01:04;97743.19;;;5.10;51.46
61035;BME280;46916;40.564;-7.958;2023-03-03T02:03:07;97746.44;;;5.13;51.88
61035;BME280;46916;40.564;-7.958;2023-03-03T02:05:08;97741.75;;;5.20;51.27
61035;BME280;46916;40.564;-7.958;2023-03-03T02:07:10;97730.25;;;5.24;50.53
61035;BME280;46916;40.564;-7.958;2023-03-03T02:09:13;97736.94;;;5.28;50.38
61035;BME280;46916;40.564;-7.958;2023-03-03T02:11:18;97731.66;;;5.30;50.29
61035;BME280;46916;40.564;-7.958;2023-03-03T02:13:20;97740.28;;;5.30;50.52
61035;BME280;46916;40.564;-7.958;2023-03-03T02:17:29;97729.44;;;5.38;50.17
61035;BME280;46916;40.564;-7.958;2023-03-03T02:20:02;97731.97;;;5.39;50.34
61035;BME280;46916;40.564;-7.958;2023-03-03T02:22:06;97729.09;;;5.44;50.71
61035;BME280;46916;40.564;-7.958;2023-03-03T02:24:15;97726.13;;;5.50;50.24
61035;BME280;46916;40.564;-7.958;2023-03-03T02:26:21;97725.22;;;5.51;50.07
61035;BME280;46916;40.564;-7.958;2023-03-03T02:28:28;97727.06;;;5.49;49.89
61035;BME280;46916;40.564;-7.958;2023-03-03T02:30:29;97723.81;;;5.45;50.15
61035;BME280;46916;40.564;-7.958;2023-03-03T02:32:29;97729.66;;;5.49;50.18
61035;BME280;46916;40.564;-7.958;2023-03-03T02:34:30;97716.84;;;5.46;50.23
61035;BME280;46916;40.564;-7.958;2023-03-03T02:36:34;97716.50;;;5.52;49.53
61035;BME280;46916;40.564;-7.958;2023-03-03T02:38:36;97724.66;;;5.60;50.28
61035;BME280;46916;40.564;-7.958;2023-03-03T02:40:48;97715.75;;;5.64;50.20
61035;BME280;46916;40.564;-7.958;2023-03-03T02:42:54;97718.72;;;5.72;49.99
61035;BME280;46916;40.564;-7.958;2023-03-03T02:44:57;97705.44;;;5.77;49.64
61035;BME280;46916;40.564;-7.958;2023-03-03T02:46:58;97704.22;;;5.83;49.38
61035;BME280;46916;40.564;-7.958;2023-03-03T02:49:01;97699.03;;;5.83;49.51
61035;BME280;46916;40.564;-7.958;2023-03-03T02:51:03;97697.09;;;5.86;49.87
61035;BME280;46916;40.564;-7.958;2023-03-03T02:53:04;97689.94;;;5.90;49.33
61035;BME280;46916;40.564;-7.958;2023-03-03T02:55:05;97693.47;;;5.89;49.68
61035;BME280;46916;40.564;-7.958;2023-03-03T02:57:06;97688.28;;;5.89;49.72
61035;BME280;46916;40.564;-7.958;2023-03-03T02:59:09;97695.25;;;5.88;49.52
61035;BME280;46916;40.564;-7.958;2023-03-03T03:01:15;97694.88;;;5.80;49.55
61035;BME280;46916;40.564;-7.958;2023-03-03T03:03:16;97698.19;;;5.82;50.32
61035;BME280;46916;40.564;-7.958;2023-03-03T03:05:17;97694.59;;;5.85;49.73
61035;BME280;46916;40.564;-7.958;2023-03-03T03:07:18;97694.59;;;5.85;49.43
61035;BME280;46916;40.564;-7.958;2023-03-03T03:09:20;97690.22;;;5.85;49.08
61035;BME280;46916;40.564;-7.958;2023-03-03T03:11:23;97690.31;;;5.84;49.38
61035;BME280;46916;40.564;-7.958;2023-03-03T03:13:24;97687.72;;;5.84;49.74
61035;BME280;46916;40.564;-7.958;2023-03-03T03:15:25;97688.47;;;5.86;48.92
61035;BME280;46916;40.564;-7.958;2023-03-03T03:17:26;97684.75;;;5.90;49.64
61035;BME280;46916;40.564;-7.958;2023-03-03T03:19:28;97680.38;;;5.90;49.20
61035;BME280;46916;40.564;-7.958;2023-03-03T03:21:31;97677.94;;;5.87;49.25
61035;BME280;46916;40.564;-7.958;2023-03-03T03:23:33;97674.53;;;5.87;49.45
61035;BME280;46916;40.564;-7.958;2023-03-03T03:25:35;97672.69;;;5.89;49.43
61035;BME280;46916;40.564;-7.958;2023-03-03T03:27:42;97678.56;;;5.92;49.04
61035;BME280;46916;40.564;-7.958;2023-03-03T03:29:43;97679.28;;;5.94;49.39
61035;BME280;46916;40.564;-7.958;2023-03-03T03:31:44;97677.63;;;5.93;49.57
61035;BME280;46916;40.564;-7.958;2023-03-03T03:33:46;97667.38;;;5.90;49.38
61035;BME280;46916;40.564;-7.958;2023-03-03T03:35:48;97662.28;;;5.89;49.80
61035;BME280;46916;40.564;-7.958;2023-03-03T03:37:50;97661.09;;;5.94;48.80
61035;BME280;46916;40.564;-7.958;2023-03-03T03:39:51;97661.72;;;5.98;49.46
61035;BME280;46916;40.564;-7.958;2023-03-03T03:41:53;97665.09;;;6.00;49.19
61035;BME280;46916;40.564;-7.958;2023-03-03T03:43:54;97654.88;;;5.97;49.40
61035;BME280;46916;40.564;-7.958;2023-03-03T03:45:56;97657.47;;;5.97;49.49
61035;BME280;46916;40.564;-7.958;2023-03-03T03:47:58;97651.63;;;5.93;49.29
61035;BME280;46916;40.564;-7.958;2023-03-03T03:49:58;97652.16;;;5.84;49.06
61035;BME280;46916;40.564;-7.958;2023-03-03T03:51:59;97653.19;;;5.82;49.41
61035;BME280;46916;40.564;-7.958;2023-03-03T03:54:04;97642.25;;;5.77;49.65
61035;BME280;46916;40.564;-7.958;2023-03-03T03:56:08;97652.81;;;5.74;49.54
61035;BME280;46916;40.564;-7.958;2023-03-03T03:58:12;97645.41;;;5.67;49.75
61035;BME280;46916;40.564;-7.958;2023-03-03T04:00:13;97650.88;;;5.63;49.44
61035;BME280;46916;40.564;-7.958;2023-03-03T04:02:14;97645.31;;;5.55;49.74
61035;BME280;46916;40.564;-7.958;2023-03-03T04:04:15;97653.75;;;5.58;49.67
61035;BME280;46916;40.564;-7.958;2023-03-03T04:06:17;97651.16;;;5.58;49.36
61035;BME280;46916;40.564;-7.958;2023-03-03T04:08:18;97649.38;;;5.59;49.66
61035;BME280;46916;40.564;-7.958;2023-03-03T04:10:18;97657.28;;;5.57;49.70
61035;BME280;46916;40.564;-7.958;2023-03-03T04:12:20;97650.59;;;5.53;50.20
61035;BME280;46916;40.564;-7.958;2023-03-03T04:14:20;97647.06;;;5.54;49.95
61035;BME280;46916;40.564;-7.958;2023-03-03T04:16:21;97650.31;;;5.58;49.49
61035;BME280;46916;40.564;-7.958;2023-03-03T04:18:22;97650.31;;;5.58;49.78
61035;BME280;46916;40.564;-7.958;2023-03-03T04:20:23;97644.13;;;5.60;49.83
61035;BME280;46916;40.564;-7.958;2023-03-03T04:22:23;97651.72;;;5.63;49.92
61035;BME280;46916;40.564;-7.958;2023-03-03T04:24:24;97656.16;;;5.61;49.56
61035;BME280;46916;40.564;-7.958;2023-03-03T04:26:25;97651.16;;;5.58;49.62
61035;BME280;46916;40.564;-7.958;2023-03-03T04:28:26;97657.38;;;5.56;49.33
61035;BME280;46916;40.564;-7.958;2023-03-03T04:30:27;97656.63;;;5.54;49.49
61035;BME280;46916;40.564;-7.958;2023-03-03T04:32:31;97652.25;;;5.54;49.68
61035;BME280;46916;40.564;-7.958;2023-03-03T04:34:34;97647.81;;;5.56;49.65
61035;BME280;46916;40.564;-7.958;2023-03-03T04:36:35;97652.91;;;5.58;49.32
61035;BME280;46916;40.564;-7.958;2023-03-03T04:38:36;97657.47;;;5.54;49.57
61035;BME280;46916;40.564;-7.958;2023-03-03T04:40:39;97655.69;;;5.55;49.96
61035;BME280;46916;40.564;-7.958;2023-03-03T04:42:40;97648.56;;;5.58;48.95
61035;BME280;46916;40.564;-7.958;2023-03-03T04:44:42;97656.56;;;5.55;49.29
61035;BME280;46916;40.564;-7.958;2023-03-03T04:46:43;97650.72;;;5.52;49.60
61035;BME280;46916;40.564;-7.958;2023-03-03T04:48:45;97651.53;;;5.38;49.93
61035;BME280;46916;40.564;-7.958;2023-03-03T04:50:46;97649.75;;;5.24;50.58
61035;BME280;46916;40.564;-7.958;2023-03-03T04:52:48;97649.47;;;5.14;50.39
61035;BME280;46916;40.564;-7.958;2023-03-03T04:54:49;97661.94;;;4.93;50.67
61035;BME280;46916;40.564;-7.958;2023-03-03T04:56:50;97646.50;;;4.76;51.36
61035;BME280;46916;40.564;-7.958;2023-03-03T04:58:51;97659.19;;;4.66;51.11
61035;BME280;46916;40.564;-7.958;2023-03-03T05:00:54;97658.22;;;4.53;51.58
61035;BME280;46916;40.564;-7.958;2023-03-03T05:02:55;97657.88;;;4.43;52.27
61035;BME280;46916;40.564;-7.958;2023-03-03T05:04:57;97656.81;;;4.32;52.74
61035;BME280;46916;40.564;-7.958;2023-03-03T05:06:58;97654.31;;;4.30;52.96
61035;BME280;46916;40.564;-7.958;2023-03-03T05:08:58;97659.13;;;4.36;52.85
61035;BME280;46916;40.564;-7.958;2023-03-03T05:10:59;97658.81;;;4.42;52.34
61035;BME280;46916;40.564;-7.958;2023-03-03T05:13:00;97656.63;;;4.51;52.27
61035;BME280;46916;40.564;-7.958;2023-03-03T05:15:01;97661.44;;;4.57;51.67
61035;BME280;46916;40.564;-7.958;2023-03-03T05:17:02;97651.06;;;4.57;52.10
61035;BME280;46916;40.564;-7.958;2023-03-03T05:19:03;97653.22;;;4.64;51.57
61035;BME280;46916;40.564;-7.958;2023-03-03T05:21:05;97656.50;;;4.68;52.23
61035;BME280;46916;40.564;-7.958;2023-03-03T05:23:06;97652.91;;;4.70;51.42
61035;BME280;46916;40.564;-7.958;2023-03-03T05:25:07;97655.31;;;4.74;51.73
61035;BME280;46916;40.564;-7.958;2023-03-03T05:27:09;97661.81;;;4.81;52.03
61035;BME280;46916;40.564;-7.958;2023-03-03T05:29:11;97665.00;;;4.86;51.38
61035;BME280;46916;40.564;-7.958;2023-03-03T05:31:11;97656.34;;;4.85;51.96
61035;BME280;46916;40.564;-7.958;2023-03-03T05:33:14;97665.72;;;4.88;51.57
61035;BME280;46916;40.564;-7.958;2023-03-03T05:35:15;97662.88;;;4.92;51.78
61035;BME280;46916;40.564;-7.958;2023-03-03T05:37:15;97669.66;;;4.95;51.39
61035;BME280;46916;40.564;-7.958;2023-03-03T05:39:16;97666.03;;;4.97;51.23
61035;BME280;46916;40.564;-7.958;2023-03-03T05:41:17;97669.28;;;5.01;51.60
61035;BME280;46916;40.564;-7.958;2023-03-03T05:43:18;97675.97;;;5.05;51.61
61035;BME280;46916;40.564;-7.958;2023-03-03T05:45:19;97672.38;;;5.08;51.11
61035;BME280;46916;40.564;-7.958;2023-03-03T05:47:20;97684.34;;;5.10;51.36
61035;BME280;46916;40.564;-7.958;2023-03-03T05:49:21;97670.59;;;5.08;50.79
61035;BME280;46916;40.564;-7.958;2023-03-03T05:51:21;97673.19;;;5.08;50.96
61035;BME280;46916;40.564;-7.958;2023-03-03T05:53:22;97676.72;;;5.07;51.28
61035;BME280;46916;40.564;-7.958;2023-03-03T05:55:23;97673.38;;;5.05;51.29
61035;BME280;46916;40.564;-7.958;2023-03-03T05:57:24;97676.78;;;5.06;50.71
61035;BME280;46916;40.564;-7.958;2023-03-03T05:59:25;97677.66;;;5.06;51.24
61035;BME280;46916;40.564;-7.958;2023-03-03T06:01:25;97683.75;;;5.05;50.91
61035;BME280;46916;40.564;-7.958;2023-03-03T06:03:27;97679.31;;;5.07;50.95
61035;BME280;46916;40.564;-7.958;2023-03-03T06:05:28;97686.19;;;5.08;50.62
61035;BME280;46916;40.564;-7.958;2023-03-03T06:07:29;97676.72;;;5.07;50.93
61035;BME280;46916;40.564;-7.958;2023-03-03T06:09:31;97674.13;;;5.07;51.11
61035;BME280;46916;40.564;-7.958;2023-03-03T06:11:31;97676.78;;;5.06;50.61
61035;BME280;46916;40.564;-7.958;2023-03-03T06:13:32;97678.75;;;5.02;51.24
61035;BME280;46916;40.564;-7.958;2023-03-03T06:15:33;97686.34;;;5.05;50.74
61035;BME280;46916;40.564;-7.958;2023-03-03T06:17:34;97680.25;;;5.06;50.54
61035;BME280;46916;40.564;-7.958;2023-03-03T06:19:35;97680.44;;;5.03;50.96
61035;BME280;46916;40.564;-7.958;2023-03-03T06:21:36;97682.66;;;5.09;50.79
61035;BME280;46916;40.564;-7.958;2023-03-03T06:23:36;97685.97;;;4.97;51.27
61035;BME280;46916;40.564;-7.958;2023-03-03T06:25:38;97682.31;;;4.85;51.22
61035;BME280;46916;40.564;-7.958;2023-03-03T06:27:38;97672.41;;;4.78;51.08
61035;BME280;46916;40.564;-7.958;2023-03-03T06:29:39;97677.59;;;4.78;51.67
61035;BME280;46916;40.564;-7.958;2023-03-03T06:31:40;97675.88;;;4.77;51.56
61035;BME280;46916;40.564;-7.958;2023-03-03T06:33:40;97674.06;;;4.79;51.13
61035;BME280;46916;40.564;-7.958;2023-03-03T06:35:41;97668.09;;;4.77;51.30
61035;BME280;46916;40.564;-7.958;2023-03-03T06:37:42;97672.91;;;4.68;51.68
61035;BME280;46916;40.564;-7.958;2023-03-03T06:39:43;97671.75;;;4.58;51.44
61035;BME280;46916;40.564;-7.958;2023-03-03T06:41:44;97674.00;;;4.48;52.33
61035;BME280;46916;40.564;-7.958;2023-03-03T06:43:44;97683.00;;;4.43;52.64
61035;BME280;46916;40.564;-7.958;2023-03-03T06:45:45;97683.00;;;4.43;52.45
61035;BME280;46916;40.564;-7.958;2023-03-03T06:47:46;97689.69;;;4.47;52.24
61035;BME280;46916;40.564;-7.958;2023-03-03T06:49:47;97684.16;;;4.53;51.88
61035;BME280;46916;40.564;-7.958;2023-03-03T06:51:48;97691.00;;;4.54;51.79
61035;BME280;46916;40.564;-7.958;2023-03-03T06:53:54;97694.44;;;4.55;52.23
61035;BME280;46916;40.564;-7.958;2023-03-03T06:55:57;97701.22;;;4.57;52.09
61035;BME280;46916;40.564;-7.958;2023-03-03T06:57:58;97694.00;;;4.62;51.95
61035;BME280;46916;40.564;-7.958;2023-03-03T07:00:12;97698.28;;;4.63;51.92
61035;BME280;46916;40.564;-7.958;2023-03-03T07:02:16;97687.78;;;4.65;51.51
61035;BME280;46916;40.564;-7.958;2023-03-03T07:06:23;97696.53;;;4.48;52.12
61035;BME280;46916;40.564;-7.958;2023-03-03T07:08:25;97699.72;;;4.37;52.57
61035;BME280;46916;40.564;-7.958;2023-03-03T07:10:28;97699.06;;;4.34;52.64
61035;BME280;46916;40.564;-7.958;2023-03-03T07:12:29;97703.56;;;4.30;52.76
61035;BME280;46916;40.564;-7.958;2023-03-03T07:14:30;97706.25;;;4.29;52.48
61035;BME280;46916;40.564;-7.958;2023-03-03T07:16:30;97706.16;;;4.30;52.90
61035;BME280;46916;40.564;-7.958;2023-03-03T07:20:44;97714.28;;;4.08;52.92
61035;BME280;46916;40.564;-7.958;2023-03-03T07:22:45;97718.44;;;3.95;53.72
61035;BME280;46916;40.564;-7.958;2023-03-03T07:24:51;97721.53;;;3.86;53.31
61035;BME280;46916;40.564;-7.958;2023-03-03T07:27:23;97719.63;;;3.89;53.69
61035;BME280;46916;40.564;-7.958;2023-03-03T07:29:26;97713.50;;;3.90;53.34
61035;BME280;46916;40.564;-7.958;2023-03-03T07:31:36;97725.28;;;3.80;53.96
61035;BME280;46916;40.564;-7.958;2023-03-03T07:33:43;97730.31;;;3.99;53.53
61035;BME280;46916;40.564;-7.958;2023-03-03T07:35:45;97742.78;;;3.92;53.48
61035;BME280;46916;40.564;-7.958;2023-03-03T07:37:46;97736.31;;;4.00;53.70
61035;BME280;46916;40.564;-7.958;2023-03-03T07:39:49;97743.28;;;4.15;53.36
61035;BME280;46916;40.564;-7.958;2023-03-03T07:41:50;97745.22;;;4.27;53.74
61035;BME280;46916;40.564;-7.958;2023-03-03T07:44:32;97748.06;;;4.54;52.51
61035;BME280;46916;40.564;-7.958;2023-03-03T07:46:40;97754.56;;;4.77;52.25
61035;BME280;46916;40.564;-7.958;2023-03-03T07:48:43;97761.44;;;4.94;51.51
61035;BME280;46916;40.564;-7.958;2023-03-03T07:50:44;97760.63;;;5.08;51.96
61035;BME280;46916;40.564;-7.958;2023-03-03T07:52:56;97764.97;;;5.23;51.43
61035;BME280;46916;40.564;-7.958;2023-03-03T07:55:00;97764.25;;;5.50;51.24
61035;BME280;46916;40.564;-7.958;2023-03-03T07:59:24;97766.47;;;6.14;49.34
61035;BME280;46916;40.564;-7.958;2023-03-03T08:01:36;97766.53;;;6.27;48.91
61035;BME280;46916;40.564;-7.958;2023-03-03T08:03:39;97770.16;;;6.39;49.03
61035;BME280;46916;40.564;-7.958;2023-03-03T08:05:41;97776.06;;;6.55;48.46
61035;BME280;46916;40.564;-7.958;2023-03-03T08:07:42;97764.50;;;6.74;47.65
61035;BME280;46916;40.564;-7.958;2023-03-03T08:11:51;97779.81;;;7.05;47.55
61035;BME280;46916;40.564;-7.958;2023-03-03T08:13:54;97769.16;;;7.23;46.62
61035;BME280;46916;40.564;-7.958;2023-03-03T08:18:46;97762.09;;;7.50;46.04
61035;BME280;46916;40.564;-7.958;2023-03-03T08:20:51;97752.41;;;7.65;45.69
61035;BME280;46916;40.564;-7.958;2023-03-03T08:22:51;97753.16;;;7.80;45.84
61035;BME280;46916;40.564;-7.958;2023-03-03T08:24:52;97758.25;;;7.94;45.15
61035;BME280;46916;40.564;-7.958;2023-03-03T08:26:53;97750.94;;;7.99;44.60
61035;BME280;46916;40.564;-7.958;2023-03-03T08:28:54;97750.53;;;8.05;44.75
61035;BME280;46916;40.564;-7.958;2023-03-03T08:30:56;97751.34;;;8.18;44.53
61035;BME280;46916;40.564;-7.958;2023-03-03T08:32:57;97745.88;;;8.34;45.99
61035;BME280;46916;40.564;-7.958;2023-03-03T08:34:57;97738.34;;;8.55;46.13
61035;BME280;46916;40.564;-7.958;2023-03-03T08:36:58;97748.41;;;8.73;45.02
61035;BME280;46916;40.564;-7.958;2023-03-03T08:38:58;97744.91;;;8.85;45.21
61035;BME280;46916;40.564;-7.958;2023-03-03T08:40:59;97739.91;;;8.82;44.22
61035;BME280;46916;40.564;-7.958;2023-03-03T08:43:02;97747.19;;;8.89;45.04
61035;BME280;46916;40.564;-7.958;2023-03-03T08:45:03;97745.44;;;9.01;44.68
61035;BME280;46916;40.564;-7.958;2023-03-03T08:47:03;97746.94;;;9.16;44.87
61035;BME280;46916;40.564;-7.958;2023-03-03T08:49:04;97741.53;;;9.31;44.54
61035;BME280;46916;40.564;-7.958;2023-03-03T08:51:30;97744.44;;;9.50;43.95
61035;BME280;46916;40.564;-7.958;2023-03-03T08:53:33;97747.06;;;9.61;43.97
61035;BME280;46916;40.564;-7.958;2023-03-03T08:55:36;97740.31;;;9.70;43.44
61035;BME280;46916;40.564;-7.958;2023-03-03T08:57:37;97734.72;;;9.75;43.29
61035;BME280;46916;40.564;-7.958;2023-03-03T08:59:38;97738.28;;;9.74;42.40
61035;BME280;46916;40.564;-7.958;2023-03-03T09:01:39;97744.50;;;9.73;42.65
61035;BME280;46916;40.564;-7.958;2023-03-03T09:03:40;97743.41;;;9.64;41.79
61035;BME280;46916;40.564;-7.958;2023-03-03T09:05:41;97741.16;;;9.59;42.14
61035;BME280;46916;40.564;-7.958;2023-03-03T09:07:42;97745.06;;;9.65;42.26
61035;BME280;46916;40.564;-7.958;2023-03-03T09:09:43;97747.81;;;9.63;42.33
61035;BME280;46916;40.564;-7.958;2023-03-03T09:11:44;97741.25;;;9.69;42.57
61035;BME280;46916;40.564;-7.958;2023-03-03T09:13:46;97746.03;;;9.86;42.03
61035;BME280;46916;40.564;-7.958;2023-03-03T09:15:52;97750.22;;;10.00;41.89
61035;BME280;46916;40.564;-7.958;2023-03-03T09:17:53;97747.34;;;10.14;41.72
61035;BME280;46916;40.564;-7.958;2023-03-03T09:20:01;97744.03;;;10.24;41.35
61035;BME280;46916;40.564;-7.958;2023-03-03T09:22:31;97748.09;;;10.28;40.70
61035;BME280;46916;40.564;-7.958;2023-03-03T09:24:35;97746.56;;;10.25;40.89
61035;BME280;46916;40.564;-7.958;2023-03-03T09:26:46;97749.78;;;10.29;40.84
61035;BME280;46916;40.564;-7.958;2023-03-03T09:28:47;97749.75;;;10.40;41.08
61035;BME280;46916;40.564;-7.958;2023-03-03T09:30:49;97752.25;;;10.41;40.47
61035;BME280;46916;40.564;-7.958;2023-03-03T09:32:50;97749.06;;;10.38;40.85
61035;BME280;46916;40.564;-7.958;2023-03-03T09:34:52;97749.50;;;10.43;41.14
61035;BME280;46916;40.564;-7.958;2023-03-03T09:36:54;97739.03;;;10.54;40.86
61035;BME280;46916;40.564;-7.958;2023-03-03T09:38:56;97742.19;;;10.69;40.72
61035;BME280;46916;40.564;-7.958;2023-03-03T09:46:00;97737.47;;;10.40;40.30
61035;BME280;46916;40.564;-7.958;2023-03-03T10:00:23;97730.22;;;10.99;40.09
61035;BME280;46916;40.564;-7.958;2023-03-03T10:11:51;97730.84;;;10.91;40.52
61035;BME280;46916;40.564;-7.958;2023-03-03T10:14:16;97724.78;;;10.90;40.64
61035;BME280;46916;40.564;-7.958;2023-03-03T10:16:32;97730.69;;;10.93;40.35
61035;BME280;46916;40.564;-7.958;2023-03-03T10:18:51;97726.88;;;10.97;40.40
61035;BME280;46916;40.564;-7.958;2023-03-03T10:21:09;97729.31;;;11.09;40.64
61035;BME280;46916;40.564;-7.958;2023-03-03T10:23:19;97729.66;;;11.16;40.32
61035;BME280;46916;40.564;-7.958;2023-03-03T10:25:42;97735.25;;;11.23;40.16
61035;BME280;46916;40.564;-7.958;2023-03-03T10:30:20;97722.81;;;11.46;40.12
61035;BME280;46916;40.564;-7.958;2023-03-03T10:32:39;97719.91;;;11.60;40.01
61035;BME280;46916;40.564;-7.958;2023-03-03T10:39:57;97715.47;;;12.12;39.23
61035;BME280;46916;40.564;-7.958;2023-03-03T10:42:09;97714.53;;;12.23;39.01
61035;BME280;46916;40.564;-7.958;2023-03-03T10:49:27;97696.66;;;12.47;39.50
61035;BME280;46916;40.564;-7.958;2023-03-03T11:00:34;97680.09;;;12.66;38.92
61035;BME280;46916;40.564;-7.958;2023-03-03T11:07:18;97675.13;;;12.82;39.05
61035;BME280;46916;40.564;-7.958;2023-03-03T11:11:46;97678.84;;;13.09;38.79
61035;BME280;46916;40.564;-7.958;2023-03-03T11:14:02;97682.19;;;13.11;38.60
61035;BME280;46916;40.564;-7.958;2023-03-03T11:18:42;97676.34;;;13.17;38.48
61035;BME280;46916;40.564;-7.958;2023-03-03T11:21:26;97681.34;;;13.20;37.36
61035;BME280;46916;40.564;-7.958;2023-03-03T11:26:05;97665.56;;;13.10;37.74
61035;BME280;46916;40.564;-7.958;2023-03-03T11:33:06;97662.38;;;13.36;37.62
61035;BME280;46916;40.564;-7.958;2023-03-03T11:35:21;97661.53;;;13.45;37.50
61035;BME280;46916;40.564;-7.958;2023-03-03T11:39:38;97673.16;;;13.43;37.31
61035;BME280;46916;40.564;-7.958;2023-03-03T11:46:45;97656.09;;;13.47;37.43
61035;BME280;46916;40.564;-7.958;2023-03-03T11:49:10;97655.72;;;13.51;37.02
61035;BME280;46916;40.564;-7.958;2023-03-03T11:51:22;97660.41;;;13.48;36.81
61035;BME280;46916;40.564;-7.958;2023-03-03T11:53:52;97644.91;;;13.45;37.36
61035;BME280;46916;40.564;-7.958;2023-03-03T11:58:33;97636.19;;;13.44;37.70
61035;BME280;46916;40.564;-7.958;2023-03-03T12:13:11;97638.50;;;13.57;36.31
61035;BME280;46916;40.564;-7.958;2023-03-03T12:29:24;97631.03;;;13.52;34.95
61035;BME280;46916;40.564;-7.958;2023-03-03T12:34:20;97623.50;;;13.67;35.14
61035;BME280;46916;40.564;-7.958;2023-03-03T12:41:40;97610.25;;;13.86;35.72
61035;BME280;46916;40.564;-7.958;2023-03-03T12:43:54;97610.22;;;13.96;35.07
61035;BME280;46916;40.564;-7.958;2023-03-03T12:46:10;97603.38;;;14.03;32.98
61035;BME280;46916;40.564;-7.958;2023-03-03T12:48:22;97595.03;;;14.08;31.80
61035;BME280;46916;40.564;-7.958;2023-03-03T12:50:33;97594.53;;;14.04;31.84
61035;BME280;46916;40.564;-7.958;2023-03-03T12:53:00;97590.91;;;14.05;32.25
61035;BME280;46916;40.564;-7.958;2023-03-03T12:57:51;97590.63;;;14.08;33.40
61035;BME280;46916;40.564;-7.958;2023-03-03T13:13:46;97564.63;;;14.41;32.34
61035;BME280;46916;40.564;-7.958;2023-03-03T13:16:04;97569.13;;;14.49;32.41
61035;BME280;46916;40.564;-7.958;2023-03-03T13:22:56;97571.09;;;14.65;31.24
61035;BME280;46916;40.564;-7.958;2023-03-03T13:27:12;97552.06;;;14.71;29.95
61035;BME280;46916;40.564;-7.958;2023-03-03T13:31:38;97548.34;;;14.64;30.77